METAR Data
IDs: Format: Raw Decoded Include TAF

Data at: 0821 UTC 20 Sep 2018

KLEE 200753Z AUTO 00000KT 10SM CLR 24/24 A2998 RMK AO2 SLP151 T02440239
KLEE 200653Z AUTO 00000KT 10SM CLR 26/24 A3000 RMK AO2 SLP157 T02560239
KLEE 200553Z AUTO 17005KT 10SM CLR 26/24 A3001 RMK AO2 SLP161 T02610239 10272 20244 50001
KLEE 200453Z AUTO 20003KT 10SM CLR 25/24 A3002 RMK AO2 SLP165 T02500239 403500244
KLEE 200353Z AUTO 00000KT 10SM CLR 26/24 A3002 RMK AO2 SLP164 T02560239
KLEE 200253Z AUTO 21004KT 10SM CLR 27/23 A3001 RMK AO2 SLP160 T02670233 51014
KLEE 200153Z AUTO 00000KT 10SM CLR 26/24 A3000 RMK AO2 SLP158 T02560239
KLEE 200053Z AUTO 00000KT 10SM CLR 27/23 A2999 RMK AO2 SLP153 T02720228
KLEE 192353Z AUTO 16005KT 10SM CLR 27/23 A2997 RMK AO2 SLP146 T02720233 10350 20272 53014
KLEE 192253Z AUTO 13008KT 10SM BKN050 30/23 A2995 RMK AO2 LTG DSNT NE-S SLP141 T03000228
KLEE 192153Z 33005KT 10SM CLR 30/23 A2993 RMK AO2 LTG DSNT NE-SE SLP133 T03000233
KLEE 192124Z 01011KT 10SM CLR 30/23 A2993 RMK AO2 LTG DSNT E AND SW AND W T03000233
KLEE 192109Z 31009KT 10SM VCTS FEW049 30/23 A2992 RMK AO2 LTG DSNT W T03000228
KLEE 192053Z 31009G20KT 10SM FEW049 31/23 A2993 RMK AO2 LTG DSNT W SLP133 T03060233 55014
KLEE 192044Z 29007KT 10SM CLR 32/23 A2992 RMK AO2 LTG DSNT N AND W T03170233
KLEE 192022Z 32007KT 10SM VCTS FEW050 33/23 A2992 RMK AO2 LTG DSNT W-N T03330228
KLEE 191953Z VRB05KT 10SM CLR 35/23 A2991 RMK AO2 LTG DSNT W-NE SLP129 T03500228
KLEE 191853Z 20005KT 10SM SCT048 33/23 A2994 RMK AO2 LTG DSNT NE SLP138 T03330228
KLEE 191753Z 29003KT 10SM CLR 33/23 A2997 RMK AO2 SLP147 T03330233 10339 20256 58011
KLEE 191653Z 00000KT 10SM CLR 33/23 A2998 RMK AO2 SLP151 T03280228
KLEE 191553Z 25006KT 10SM CLR 32/24 A3000 RMK AO2 SLP158 T03170239
KLEE 191453Z VRB05KT 10SM CLR 31/24 A3000 RMK AO2 SLP158 T03060244 51008
KLEE 191353Z VRB03KT 10SM CLR 29/25 A3000 RMK AO2 SLP156 T02940250
KLEE 191253Z 00000KT 10SM CLR 27/25 A2999 RMK AO2 SLP153 T02670250
KLEE 191153Z 00000KT 10SM CLR 26/24 A2998 RMK AO2 SLP150 T02560244 10261 20244 53014
KLEE 191053Z 27003KT 10SM CLR 25/24 A2996 RMK AO2 SLP144 T02500239
KLEE 190953Z AUTO 00000KT 10SM CLR 25/24 A2994 RMK AO2 SLP136 T02500244
KLEE 190853Z AUTO 00000KT 10SM CLR 26/25 A2994 RMK AO2 SLP136 T02560250 56006
KLEE 190753Z AUTO 00000KT 10SM OVC060 26/25 A2994 RMK AO2 SLP137 T02610250
KLEE 190653Z AUTO 21004KT 10SM CLR 26/25 A2995 RMK AO2 SLP139 T02610250
KLEE 190553Z AUTO 21004KT 10SM CLR 26/24 A2995 RMK AO2 SLP142 T02560244 10272 20256 58007
KLEE 190453Z AUTO 21004KT 10SM CLR 26/25 A2996 RMK AO2 SLP144 T02610250 403440256
KLEE 190353Z AUTO 00000KT 10SM CLR 26/25 A2997 RMK AO2 SLP147 T02610250
KLEE 190253Z AUTO 00000KT 10SM CLR 26/24 A2997 RMK AO2 SLP149 T02560244 53017
KLEE 190153Z AUTO 00000KT 10SM CLR 27/23 A2996 RMK AO2 SLP144 T02670233
KLEE 190053Z AUTO 00000KT 10SM BKN043 27/23 A2993 RMK AO2 SLP135 T02670233
KLEE 182353Z AUTO 22003KT 10SM BKN048 BKN060 27/23 A2992 RMK AO2 SLP131 60000 T02670228 10344 20267 50004
KLEE 182317Z AUTO 23004KT 10SM BKN055 BKN080 27/23 A2993 RMK AO2 LTG DSNT E AND SE T02670233
KLEE 182253Z AUTO 22008KT 10SM VCTS SCT080 BKN110 27/24 A2993 RMK AO2 LTG DSNT SW SLP134 T02720239
KLEE 182153Z 02009KT 10SM VCTS CLR 29/24 A2991 RMK AO2 LTG DSNT E-SW RAB2054E06 TSE2055 SLP126 P0000 T02940244
KLEE 182101Z 27006KT 10SM VCTS -RA FEW038 BKN055 BKN070 30/23 A2992 RMK AO2 LTG DSNT ALQDS RAB2054 TSE2055 P0000 T03000233
KLEE 182053Z 30008KT 10SM TS SCT050 BKN070 BKN090 31/22 A2991 RMK AO2 LTG DSNT ALQDS TSB05 SLP127 T03110222 55017